메인 페이지
METAR-TAF:

METAR-TAF

공항 :

나타우, 히우그란지두노르치, 브라질

위도: 05-46-05S, 경도: 035-22-34W, 고도: 88m

현재 날씨관측

예보는 41분 전, 12:00시(UTC)에 발표되었습니다.
남남서8kt
온도 23°C
습도 94%
기압
시정: 9000m
고도 600ft 상공 구름 많음
고도 1500ft 상공 구름 많음
고도 2500ft 상공 구름 조금, 타워링 적운.
시계 내 소나기

METAR: SBSG 221200Z 21008KT 9000 VCSH BKN006 BKN015 FEW025TCU 23/22 Q1 018

시각: 09:41 (12:41 UTC)

예보

예보는 2 시간 41분 전, 10:00시(UTC)에 발표되었습니다.
예보 대상 시간: 22일 12시부터 23일 12시까지 (UTC)
11kt
시정: 8000m
고도 2000ft 상공 구름 보통
확률 30% :
일시적
22일 12시부터 22일 14시까지 (UTC)
시정: 4500m
고도 1200ft 상공 구름 보통
고도 1600ft 상공 구름 많음
소나기
전환 중
22일 19시부터 22일 21시까지 (UTC)
6kt
전환 중
23일 01시부터 23일 03시까지 (UTC)
남서4kt

TAF: SBSG 221000Z 2212/2312 18011KT 8000 SCT020 TX29/2215Z TN21/2307Z PROB30 TEMPO 2212/2214 4500 SHRA SCT012 BKN016 BECMG 2219/2221 19006KT BECMG 2301/2303 22004KT RMK PEU

4,000개 이상의 공항 관측 자료 및 예보 (METAR 및 TAF 보고).

지도상에서 검색 가능한 기상관측소가 노란 점과 빨간 점으로 표시되어 있습니다.

기상관측소 명을 보려면 표시 위로 마우스를 이동하세요.

날씨 관측과 예보를 보려면 클릭하세요.

지도 변경 : 확대하려면 엑스 표시가 있는 녹색 버튼, 축소하려면 빼기 표시가 있는 녹색 버튼, 다음 페이지의 지도를 보려면 녹색 화살표를 클릭하세요.


METAR-TAF: